Time;durP1;ratioP1;P1;durP2;ratioP2;P2;SDS_P1;SDS_P2;PMS_P1;PMS_P2;Temp;Humidity;BMP_temperature;BMP_pressure;BME280_temperature;BME280_humidity;BME280_pressure;Samples;Min_cycle;Max_cycle;Signal;HPM_P1;HPM_P2
2023/06/12 00:02:13;;;;;;;8.48;7.50;;;;;;;23.29;39.63;101367.31;5087396;28;20023;-62
2023/06/12 00:04:39;;;;;;;10.52;7.32;;;;;;;23.15;39.93;101362.56;5115510;27;20023;-62
2023/06/12 00:07:05;;;;;;;15.23;7.15;;;;;;;23.26;39.65;101367.63;5106203;28;20012;-61
2023/06/12 00:09:33;;;;;;;15.38;7.97;;;;;;;23.09;39.95;101365.94;5103339;28;20101;-61
2023/06/12 00:11:58;;;;;;;7.90;7.10;;;;;;;23.04;41.54;101373.72;5095297;28;20016;-62
2023/06/12 00:14:24;;;;;;;9.18;6.65;;;;;;;23.07;40.38;101368.81;5096052;28;20054;-61
2023/06/12 00:16:49;;;;;;;8.15;7.35;;;;;;;22.89;41.44;101365.31;5112207;28;20019;-61
2023/06/12 00:19:15;;;;;;;9.40;7.30;;;;;;;22.89;41.65;101370.75;5094846;28;20031;-62
2023/06/12 00:21:41;;;;;;;9.48;7.47;;;;;;;22.82;41.88;101362.41;5113689;27;20019;-62
2023/06/12 00:24:08;;;;;;;10.27;6.97;;;;;;;22.79;41.47;101364.59;5102926;28;20568;-61
2023/06/12 00:26:38;;;;;;;11.70;7.43;;;;;;;22.83;41.55;101366.00;5114205;28;20035;-61
2023/06/12 00:29:03;;;;;;;9.77;6.88;;;;;;;22.53;42.59;101365.53;5114737;28;20470;-61
2023/06/12 00:31:29;;;;;;;11.88;7.68;;;;;;;22.66;42.10;101362.34;5104194;28;20027;-61
2023/06/12 00:33:56;;;;;;;10.05;7.10;;;;;;;22.64;41.84;101367.94;5102990;28;20140;-61
2023/06/12 00:36:22;;;;;;;9.40;7.63;;;;;;;22.67;41.89;101367.59;5105427;28;20024;-62
2023/06/12 00:38:48;;;;;;;8.68;7.55;;;;;;;22.55;41.90;101352.66;5114280;28;20076;-61
2023/06/12 00:41:13;;;;;;;12.88;7.70;;;;;;;22.52;42.30;101365.69;5103806;28;20032;-61
2023/06/12 00:43:39;;;;;;;10.68;7.05;;;;;;;22.55;42.03;101373.50;5110557;28;20503;-61
2023/06/12 00:46:06;;;;;;;10.65;6.90;;;;;;;22.40;42.64;101355.13;5112956;28;20039;-61
2023/06/12 00:48:32;;;;;;;10.27;6.93;;;;;;;22.39;42.69;101353.44;5112126;28;20024;-61
2023/06/12 00:50:58;;;;;;;9.77;7.25;;;;;;;22.42;41.80;101361.22;5096222;28;20530;-61
2023/06/12 00:53:24;;;;;;;9.73;6.78;;;;;;;22.31;43.37;101358.81;5096100;28;20110;-61
2023/06/12 00:55:50;;;;;;;13.00;7.38;;;;;;;22.07;43.50;101359.47;5101211;28;20030;-61
2023/06/12 00:58:15;;;;;;;8.40;7.05;;;;;;;22.18;43.03;101363.81;5081226;28;20116;-61
2023/06/12 01:00:41;;;;;;;9.13;7.75;;;;;;;22.07;43.80;101364.03;5113006;28;20035;-62
2023/06/12 01:03:09;;;;;;;11.70;6.90;;;;;;;22.22;42.89;101354.34;5112940;28;20042;-61
2023/06/12 01:05:42;;;;;;;8.88;7.70;;;;;;;22.05;44.04;101360.63;5094629;28;20019;-61
2023/06/12 01:08:32;;;;;;;10.00;7.50;;;;;;;22.05;43.67;101363.34;5098909;28;20054;-62
2023/06/12 01:11:09;;;;;;;10.65;7.60;;;;;;;21.95;44.36;101350.75;5111486;28;20019;-61
2023/06/12 01:13:35;;;;;;;10.38;7.32;;;;;;;21.87;44.47;101364.25;5081455;28;20027;-61
2023/06/12 01:16:01;;;;;;;10.27;7.20;;;;;;;21.75;44.48;101354.66;5103171;28;20024;-62
2023/06/12 01:18:27;;;;;;;10.73;7.78;;;;;;;21.55;45.87;101354.84;5106193;28;20019;-61
2023/06/12 01:20:55;;;;;;;7.88;7.13;;;;;;;21.63;45.36;101358.63;5095468;28;20402;-61
2023/06/12 01:23:33;;;;;;;10.65;7.28;;;;;;;21.76;45.22;101356.34;5113947;28;20057;-61
2023/06/12 01:26:36;;;;;;;11.85;7.90;;;;;;;21.60;46.02;101350.84;5093099;28;20028;-61
2023/06/12 01:29:16;;;;;;;8.30;7.47;;;;;;;21.55;46.35;101368.38;5075307;28;20031;-61
2023/06/12 01:31:59;;;;;;;11.27;7.75;;;;;;;21.56;46.13;101361.13;5094122;28;20122;-61
2023/06/12 01:34:37;;;;;;;8.50;7.70;;;;;;;21.45;46.46;101372.19;5095163;28;20027;-61
2023/06/12 01:37:17;;;;;;;8.80;7.88;;;;;;;21.39;46.90;101370.09;5094913;28;20062;-61
2023/06/12 01:39:56;;;;;;;10.20;7.30;;;;;;;21.32;46.30;101369.81;5112544;28;20089;-61
2023/06/12 01:42:23;;;;;;;8.63;7.43;;;;;;;21.18;47.14;101364.94;5113640;28;20034;-61
2023/06/12 01:44:52;;;;;;;8.63;7.70;;;;;;;21.33;46.43;101372.38;5112945;28;20049;-61
2023/06/12 01:47:18;;;;;;;11.82;7.68;;;;;;;21.34;46.54;101373.22;5113702;27;20501;-61
2023/06/12 01:49:44;;;;;;;13.25;7.78;;;;;;;21.17;46.61;101372.19;5111224;28;20036;-61
2023/06/12 01:52:12;;;;;;;12.77;7.78;;;;;;;21.18;46.82;101367.63;5104160;28;20092;-61
2023/06/12 01:54:40;;;;;;;12.20;7.30;;;;;;;21.16;47.02;101370.50;5108219;28;20030;-61
2023/06/12 01:57:06;;;;;;;9.85;8.27;;;;;;;21.10;46.89;101371.13;5120931;27;20026;-61
2023/06/12 01:59:32;;;;;;;15.45;8.13;;;;;;;21.15;46.72;101368.81;5111176;28;20023;-61
2023/06/12 02:01:57;;;;;;;8.68;7.88;;;;;;;20.89;47.71;101371.41;5093252;28;20072;-61
2023/06/12 02:04:23;;;;;;;13.38;8.35;;;;;;;20.69;47.69;101375.22;5111088;28;20423;-62
2023/06/12 02:06:49;;;;;;;9.77;8.05;;;;;;;20.58;48.62;101370.84;5088605;28;20024;-61
2023/06/12 02:09:15;;;;;;;13.63;8.02;;;;;;;20.71;48.58;101379.47;5106353;27;20471;-61
2023/06/12 02:11:40;;;;;;;13.88;8.52;;;;;;;20.61;49.36;101374.09;5092806;28;20031;-61
2023/06/12 02:14:08;;;;;;;11.38;8.50;;;;;;;20.65;48.98;101371.97;5125819;27;20031;-61
2023/06/12 02:16:33;;;;;;;8.82;7.93;;;;;;;20.82;48.95;101373.00;5109611;28;20032;-61
2023/06/12 02:18:59;;;;;;;9.55;8.27;;;;;;;20.78;49.00;101368.91;5111610;28;20034;-61
2023/06/12 02:21:24;;;;;;;13.48;8.52;;;;;;;20.55;48.97;101360.31;5111063;28;20034;-62
2023/06/12 02:23:50;;;;;;;10.55;7.80;;;;;;;20.49;48.85;101372.53;5093707;28;20464;-61
2023/06/12 02:26:16;;;;;;;10.60;8.65;;;;;;;20.49;49.06;101372.53;5093306;28;20451;-61
2023/06/12 02:28:44;;;;;;;11.18;8.85;;;;;;;20.62;49.03;101361.44;5104462;28;20596;-61
2023/06/12 02:31:10;;;;;;;9.02;8.13;;;;;;;20.38;48.79;101354.69;5102732;28;20031;-61
2023/06/12 02:33:38;;;;;;;13.00;8.32;;;;;;;20.56;48.29;101362.00;5109400;28;20031;-62
2023/06/12 02:36:07;;;;;;;9.90;7.95;;;;;;;20.56;48.26;101360.19;5093079;28;20083;-61
2023/06/12 02:38:32;;;;;;;14.52;8.38;;;;;;;20.49;48.17;101359.03;5101673;28;20032;-61
2023/06/12 02:41:00;;;;;;;12.93;9.00;;;;;;;20.24;48.91;101362.41;5101906;28;20398;-61
2023/06/12 02:43:25;;;;;;;9.13;8.15;;;;;;;20.14;48.54;101355.19;5108669;28;20028;-61
2023/06/12 02:45:51;;;;;;;10.93;9.23;;;;;;;20.30;48.30;101356.44;5103796;28;20073;-61
2023/06/12 02:48:16;;;;;;;11.95;8.25;;;;;;;20.07;49.51;101356.78;5099044;28;20533;-61
2023/06/12 02:50:41;;;;;;;10.02;8.38;;;;;;;20.27;49.22;101359.44;5092883;28;20080;-61
2023/06/12 02:53:07;;;;;;;10.77;8.40;;;;;;;20.30;49.22;101353.72;5094250;28;20421;-61
2023/06/12 02:55:37;;;;;;;10.25;8.45;;;;;;;20.01;50.25;101360.06;5109721;28;20024;-61
2023/06/12 02:58:06;;;;;;;9.23;8.30;;;;;;;19.93;50.29;101359.91;5107149;28;20016;-61
2023/06/12 03:00:31;;;;;;;11.55;8.63;;;;;;;19.83;50.49;101356.41;5098355;28;20032;-61
2023/06/12 03:02:57;;;;;;;9.38;8.38;;;;;;;19.81;50.59;101358.38;5110570;28;20027;-61
2023/06/12 03:05:25;;;;;;;10.07;8.95;;;;;;;19.81;50.41;101345.75;5104744;28;20035;-61
2023/06/12 03:07:52;;;;;;;10.07;8.80;;;;;;;19.66;50.48;101357.97;5107601;28;20028;-61
2023/06/12 03:10:18;;;;;;;10.35;8.50;;;;;;;19.73;50.30;101362.63;5111813;28;20403;-61
2023/06/12 03:12:43;;;;;;;13.32;9.43;;;;;;;19.83;50.45;101359.09;5073061;28;20032;-61
2023/06/12 03:15:09;;;;;;;10.23;9.15;;;;;;;19.84;50.01;101358.94;5073398;28;20495;-61
2023/06/12 03:17:35;;;;;;;18.42;9.23;;;;;;;19.60;50.56;101355.81;5112120;28;20031;-61
2023/06/12 03:20:03;;;;;;;10.02;8.65;;;;;;;19.57;50.92;101356.97;5111975;28;20032;-61
2023/06/12 03:22:29;;;;;;;12.47;9.37;;;;;;;19.76;50.54;101366.06;5112137;28;20496;-61
2023/06/12 03:24:54;;;;;;;11.02;9.32;;;;;;;19.53;50.94;101358.25;5111765;28;20102;-61
2023/06/12 03:27:21;;;;;;;10.35;9.35;;;;;;;19.39;51.15;101359.53;5111820;28;20050;-61
2023/06/12 03:29:46;;;;;;;10.07;8.88;;;;;;;19.60;51.14;101359.38;5093556;28;20030;-62
2023/06/12 03:32:14;;;;;;;13.65;8.95;;;;;;;19.47;50.96;101366.88;5110381;28;20377;-62
2023/06/12 03:34:39;;;;;;;9.95;8.43;;;;;;;19.48;50.75;101366.75;5109356;28;20057;-61
2023/06/12 03:37:05;;;;;;;11.45;9.20;;;;;;;19.39;51.49;101375.72;5111602;28;20041;-62
2023/06/12 03:39:33;;;;;;;10.85;9.00;;;;;;;19.44;51.48;101361.78;5111572;28;20388;-61
2023/06/12 03:41:59;;;;;;;10.60;8.68;;;;;;;19.55;51.54;101369.72;5111579;28;20023;-61
2023/06/12 03:44:25;;;;;;;11.82;8.90;;;;;;;19.58;51.67;101376.69;5093468;28;20106;-61
2023/06/12 03:46:50;;;;;;;12.35;8.77;;;;;;;19.34;52.63;101377.97;5108143;28;20023;-61
2023/06/12 03:49:15;;;;;;;10.45;9.25;;;;;;;19.38;52.51;101378.53;5105758;28;20051;-61
2023/06/12 03:51:42;;;;;;;11.65;8.73;;;;;;;19.38;52.62;101382.06;5109888;28;20019;-61
2023/06/12 03:54:07;;;;;;;11.30;9.00;;;;;;;19.39;53.04;101381.09;5080357;28;20036;-61
2023/06/12 03:56:33;;;;;;;10.55;9.52;;;;;;;19.21;53.29;101377.41;5072144;28;20028;-61
2023/06/12 03:59:00;;;;;;;10.45;9.32;;;;;;;19.43;52.98;101385.22;5084034;28;20580;-61
2023/06/12 04:01:25;;;;;;;12.63;9.20;;;;;;;19.14;53.83;101385.16;5092637;28;20035;-61
2023/06/12 04:03:51;;;;;;;10.30;9.18;;;;;;;19.13;53.89;101382.63;5077677;28;20031;-61
2023/06/12 04:06:16;;;;;;;10.82;9.80;;;;;;;19.19;53.61;101387.47;5081530;28;20031;-62
2023/06/12 04:08:44;;;;;;;16.30;9.50;;;;;;;19.31;53.14;101393.59;5097462;28;20544;-61
2023/06/12 04:11:14;;;;;;;12.48;10.10;;;;;;;19.29;53.25;101393.72;5101774;28;20027;-61
2023/06/12 04:13:42;;;;;;;13.15;9.80;;;;;;;19.19;53.28;101390.16;5114128;28;20084;-61
2023/06/12 04:16:10;;;;;;;11.40;10.27;;;;;;;19.26;53.35;101394.84;5109277;28;20032;-61
2023/06/12 04:18:37;;;;;;;13.90;10.32;;;;;;;19.20;53.33;101399.94;5111396;28;20048;-61
2023/06/12 04:21:03;;;;;;;13.38;9.75;;;;;;;19.22;53.06;101397.97;5128145;27;20076;-61
2023/06/12 04:23:29;;;;;;;14.63;10.13;;;;;;;19.11;53.99;101398.09;5114375;27;20031;-61
2023/06/12 04:26:04;;;;;;;14.90;10.25;;;;;;;18.98;54.21;101409.13;5103448;28;20050;-61
2023/06/12 04:28:36;;;;;;;11.40;9.93;;;;;;;19.15;53.45;101400.38;5093698;28;20032;-61
2023/06/12 04:31:02;;;;;;;11.25;9.73;;;;;;;19.07;54.04;101386.72;5114342;28;20091;-61
2023/06/12 04:33:30;;;;;;;12.75;10.15;;;;;;;19.22;53.94;101408.75;5112927;28;20131;-59
2023/06/12 04:35:57;;;;;;;19.83;12.25;;;;;;;19.15;54.51;101400.38;5096051;28;20031;-58
2023/06/12 04:38:23;;;;;;;14.52;10.05;;;;;;;19.31;53.99;101394.44;5096800;28;20088;-59
2023/06/12 04:40:51;;;;;;;13.90;9.85;;;;;;;19.34;53.97;101399.53;5114161;28;20046;-59
2023/06/12 04:43:21;;;;;;;10.98;9.75;;;;;;;19.26;54.18;101394.84;5114507;28;20545;-59
2023/06/12 04:45:47;;;;;;;13.43;9.52;;;;;;;19.43;54.50;101400.56;5095722;28;20409;-59
2023/06/12 04:48:13;;;;;;;15.90;10.30;;;;;;;19.47;53.48;101392.03;5112548;28;20600;-59
2023/06/12 04:50:39;;;;;;;21.65;10.10;;;;;;;19.56;52.64;101402.97;5112351;28;20080;-60
2023/06/12 04:53:06;;;;;;;13.63;10.27;;;;;;;19.71;52.44;101402.44;5114071;28;20023;-59
2023/06/12 04:55:32;;;;;;;17.50;10.00;;;;;;;19.74;53.25;101396.75;5114583;27;20106;-59
2023/06/12 04:57:58;;;;;;;18.38;9.60;;;;;;;19.77;52.51;101390.22;5109825;28;20104;-59
2023/06/12 05:00:24;;;;;;;22.65;11.05;;;;;;;19.80;51.32;101408.84;5112735;27;20124;-59
2023/06/12 05:02:49;;;;;;;20.10;10.68;;;;;;;19.73;53.67;101396.88;5095268;28;20114;-59
2023/06/12 05:05:15;;;;;;;12.23;10.85;;;;;;;19.91;51.77;101397.00;5112610;28;20119;-59
2023/06/12 05:07:45;;;;;;;12.98;10.23;;;;;;;20.00;51.94;101404.28;5101362;28;20028;-59
2023/06/12 05:10:10;;;;;;;12.88;10.25;;;;;;;20.00;52.79;101408.78;5092571;28;20024;-60
2023/06/12 05:12:36;;;;;;;17.60;11.07;;;;;;;20.05;50.95;101407.38;5094593;28;20057;-60
2023/06/12 05:15:03;;;;;;;14.82;10.07;;;;;;;20.23;50.80;101406.63;5109849;28;20028;-59
2023/06/12 05:17:29;;;;;;;13.73;11.38;;;;;;;20.23;51.48;101412.03;5064615;28;20020;-59
2023/06/12 05:19:54;;;;;;;13.88;11.20;;;;;;;20.25;51.77;101415.44;5113647;28;20034;-60
2023/06/12 05:22:20;;;;;;;15.25;11.63;;;;;;;20.33;50.18;101412.88;5110426;28;20032;-59
2023/06/12 05:24:45;;;;;;;14.70;10.85;;;;;;;20.39;50.77;101417.69;5074151;28;20111;-59
2023/06/12 05:27:11;;;;;;;15.57;11.88;;;;;;;20.50;50.57;101411.22;5106929;28;20351;-59
2023/06/12 05:29:37;;;;;;;11.93;10.65;;;;;;;20.56;49.53;101418.78;5112187;28;20513;-59
2023/06/12 05:32:03;;;;;;;15.93;10.30;;;;;;;20.61;50.66;101408.38;5089963;28;20028;-58
2023/06/12 05:34:28;;;;;;;19.05;10.73;;;;;;;20.71;49.91;101414.59;5112078;28;20497;-59
2023/06/12 05:36:54;;;;;;;15.55;10.77;;;;;;;20.79;48.98;101413.84;5112041;28;20023;-59
2023/06/12 05:39:20;;;;;;;13.18;11.20;;;;;;;20.85;48.78;101413.25;5085986;28;20045;-59
2023/06/12 05:41:45;;;;;;;11.63;10.25;;;;;;;20.86;49.39;101406.84;5078330;28;20139;-59
2023/06/12 05:44:11;;;;;;;14.27;10.65;;;;;;;20.94;48.53;101397.97;5090480;28;20040;-59
2023/06/12 05:46:36;;;;;;;14.43;10.32;;;;;;;21.13;48.66;101410.56;5091383;28;20024;-59
2023/06/12 05:49:01;;;;;;;16.75;10.07;;;;;;;21.15;49.11;101406.69;5089155;28;20027;-59
2023/06/12 05:51:27;;;;;;;13.38;10.40;;;;;;;21.23;48.37;101406.75;5090657;28;20594;-59
2023/06/12 05:53:53;;;;;;;13.43;10.27;;;;;;;21.37;48.02;101399.16;5089727;28;20031;-59
2023/06/12 05:56:19;;;;;;;14.63;10.02;;;;;;;21.49;47.67;101395.22;5090012;28;20377;-59
2023/06/12 05:58:44;;;;;;;13.52;10.45;;;;;;;21.60;46.97;101404.97;5072348;28;20028;-59
2023/06/12 06:01:17;;;;;;;14.23;9.77;;;;;;;21.61;47.12;101404.81;5070949;28;20048;-59
2023/06/12 06:03:46;;;;;;;12.60;9.63;;;;;;;21.69;46.93;101404.88;5087022;28;20039;-59
2023/06/12 06:06:15;;;;;;;16.13;9.55;;;;;;;21.83;46.61;101399.94;5079674;28;20032;-59
2023/06/12 06:08:41;;;;;;;15.52;11.02;;;;;;;21.79;47.22;101396.66;5081790;28;20520;-58
2023/06/12 06:11:06;;;;;;;15.80;9.98;;;;;;;21.78;47.55;101405.81;5090000;28;20031;-58
2023/06/12 06:13:34;;;;;;;18.02;10.13;;;;;;;21.90;47.40;101404.53;5090592;28;20103;-58
2023/06/12 06:16:02;;;;;;;13.40;9.50;;;;;;;21.87;47.93;101402.16;5085418;28;20028;-58
2023/06/12 06:18:30;;;;;;;21.57;9.33;;;;;;;21.98;48.03;101399.19;5089130;28;20057;-58
2023/06/12 06:20:58;;;;;;;13.17;9.37;;;;;;;22.08;47.27;101401.81;5072683;28;20029;-60
2023/06/12 06:23:24;;;;;;;16.27;9.57;;;;;;;22.16;48.21;101409.16;5071593;28;20028;-59
2023/06/12 06:25:49;;;;;;;16.67;9.40;;;;;;;22.25;47.08;101405.50;5078677;28;20070;-59
2023/06/12 06:28:15;;;;;;;16.55;9.85;;;;;;;22.36;47.07;101407.13;5104502;28;20119;-59
2023/06/12 06:30:41;;;;;;;12.15;8.63;;;;;;;22.38;47.66;101405.94;5071469;28;20504;-58
2023/06/12 06:33:08;;;;;;;15.52;8.70;;;;;;;22.43;46.83;101414.44;5075480;28;20094;-59
2023/06/12 06:35:34;;;;;;;20.42;8.98;;;;;;;22.47;45.99;101414.94;5105541;28;20094;-59
2023/06/12 06:37:59;;;;;;;13.75;8.88;;;;;;;22.50;45.98;101414.66;5091307;28;20064;-58
2023/06/12 06:40:25;;;;;;;19.05;9.52;;;;;;;22.59;45.83;101412.81;5108144;28;20585;-66
2023/06/12 06:42:52;;;;;;;11.98;8.48;;;;;;;22.60;46.58;101409.13;5112584;28;20031;-66
2023/06/12 06:45:18;;;;;;;15.18;9.05;;;;;;;22.83;45.30;101412.09;5111840;28;20020;-66
2023/06/12 06:47:44;;;;;;;17.33;8.90;;;;;;;22.76;46.46;101414.59;5110941;28;20019;-66
2023/06/12 06:50:10;;;;;;;17.23;9.60;;;;;;;22.93;44.15;101418.22;5091606;28;20024;-66
2023/06/12 06:52:35;;;;;;;16.45;8.18;;;;;;;22.98;45.78;101421.34;5092064;28;20024;-66
2023/06/12 06:55:01;;;;;;;17.40;9.38;;;;;;;23.09;44.50;101417.50;5073882;28;20027;-66
2023/06/12 06:57:26;;;;;;;14.18;8.50;;;;;;;23.21;44.35;101416.16;5111517;28;20480;-66
2023/06/12 06:59:54;;;;;;;15.88;8.48;;;;;;;23.27;45.41;101414.66;5093427;28;20030;-67
2023/06/12 07:02:20;;;;;;;22.60;9.68;;;;;;;23.24;44.18;101418.56;5103868;28;20098;-66
2023/06/12 07:04:46;;;;;;;13.07;8.43;;;;;;;23.28;43.68;101416.34;5091612;28;20119;-65
2023/06/12 07:07:11;;;;;;;16.35;8.35;;;;;;;23.27;44.45;101409.22;5091793;28;20028;-63
2023/06/12 07:09:36;;;;;;;15.68;8.25;;;;;;;23.33;44.69;101403.97;5091726;28;20017;-63
2023/06/12 07:12:02;;;;;;;18.77;8.75;;;;;;;23.29;45.03;101407.19;5095300;28;20510;-63
2023/06/12 07:14:27;;;;;;;18.40;9.02;;;;;;;23.39;44.90;101410.59;5111321;28;20035;-63
2023/06/12 07:16:53;;;;;;;15.00;8.55;;;;;;;23.49;44.17;101405.00;5098909;28;20411;-63
2023/06/12 07:19:18;;;;;;;13.02;7.60;;;;;;;23.54;44.99;101400.78;5091742;28;20024;-62
2023/06/12 07:21:43;;;;;;;11.95;7.88;;;;;;;23.60;45.31;101391.13;5091696;28;20024;-63
2023/06/12 07:24:09;;;;;;;11.63;8.52;;;;;;;23.66;43.66;101395.03;5113471;28;20019;-63
2023/06/12 07:26:35;;;;;;;10.88;7.80;;;;;;;23.72;43.33;101399.81;5093818;28;20055;-63
2023/06/12 07:29:00;;;;;;;13.85;7.85;;;;;;;23.69;43.04;101398.25;5089245;28;20024;-64
2023/06/12 07:31:26;;;;;;;11.43;8.23;;;;;;;23.76;43.22;101402.00;5111182;28;20029;-63
2023/06/12 07:33:51;;;;;;;16.98;8.25;;;;;;;23.79;43.19;101395.38;5110701;28;20026;-64
2023/06/12 07:36:16;;;;;;;12.23;8.05;;;;;;;23.92;42.19;101393.00;5111030;28;20118;-64
2023/06/12 07:38:42;;;;;;;17.63;7.50;;;;;;;24.01;43.88;101396.56;5113675;28;20100;-62
2023/06/12 07:41:08;;;;;;;14.07;8.00;;;;;;;24.09;43.39;101392.97;5114288;28;20474;-62
2023/06/12 07:43:34;;;;;;;13.52;8.02;;;;;;;24.17;42.93;101399.25;5087578;28;20057;-62
2023/06/12 07:46:04;;;;;;;11.93;8.40;;;;;;;24.17;42.85;101392.97;5111804;28;20031;-62
2023/06/12 07:48:29;;;;;;;11.77;8.10;;;;;;;24.24;42.13;101389.41;5107958;27;20024;-62
2023/06/12 07:50:55;;;;;;;11.48;7.60;;;;;;;24.38;42.69;101393.25;5112107;28;20064;-63
2023/06/12 07:53:20;;;;;;;11.32;8.00;;;;;;;24.43;43.21;101384.63;5115414;27;20055;-62
2023/06/12 07:55:47;;;;;;;8.70;7.20;;;;;;;24.52;41.23;101389.00;5096436;28;20027;-62
2023/06/12 07:58:13;;;;;;;13.35;7.65;;;;;;;24.60;42.05;101383.53;5114846;27;20058;-62
2023/06/12 08:00:38;;;;;;;16.77;8.32;;;;;;;24.68;43.06;101388.13;5114005;28;20067;-62
2023/06/12 08:03:04;;;;;;;15.60;8.00;;;;;;;24.72;41.39;101378.56;5108779;28;20019;-62
2023/06/12 08:05:30;;;;;;;15.35;8.10;;;;;;;24.79;40.98;101390.44;5114687;28;20035;-62
2023/06/12 08:07:55;;;;;;;10.77;7.70;;;;;;;24.97;42.03;101384.72;5114499;28;20079;-62
2023/06/12 08:10:21;;;;;;;17.15;8.02;;;;;;;25.04;41.97;101393.91;5096183;28;20092;-62
2023/06/12 08:12:47;;;;;;;10.05;8.23;;;;;;;25.09;39.39;101383.31;5090536;28;20384;-62
2023/06/12 08:15:13;;;;;;;14.13;7.65;;;;;;;25.18;40.78;101388.72;5107792;28;20032;-62
2023/06/12 08:17:41;;;;;;;11.40;7.15;;;;;;;25.26;41.10;101385.97;5102956;27;20470;-62
2023/06/12 08:20:09;;;;;;;10.02;7.00;;;;;;;25.34;41.06;101391.38;5095662;28;20372;-62
2023/06/12 08:22:35;;;;;;;11.38;7.07;;;;;;;25.39;39.93;101391.69;5114436;28;20048;-62
2023/06/12 08:25:06;;;;;;;18.50;7.57;;;;;;;25.48;39.00;101396.03;5092573;28;20042;-62
2023/06/12 08:27:32;;;;;;;10.95;7.40;;;;;;;25.48;39.60;101387.03;5108268;28;20031;-62
2023/06/12 08:29:57;;;;;;;16.83;7.32;;;;;;;25.63;39.75;101390.63;5113270;28;20030;-62
2023/06/12 08:32:23;;;;;;;11.15;8.00;;;;;;;25.68;39.84;101390.06;5114201;28;20012;-63
2023/06/12 08:34:49;;;;;;;9.00;7.30;;;;;;;25.76;41.07;101379.97;5078627;27;20477;-62
2023/06/12 08:37:14;;;;;;;14.25;7.63;;;;;;;25.92;38.87;101384.47;5114046;28;20504;-62
2023/06/12 08:39:39;;;;;;;11.68;6.75;;;;;;;25.91;39.42;101385.47;5090889;28;20048;-63
2023/06/12 08:42:08;;;;;;;11.38;7.40;;;;;;;25.91;38.80;101388.19;5092295;28;20020;-62
2023/06/12 08:44:34;;;;;;;;;;;;;;;25.95;38.63;101386.81;5085089;28;20496;-63
2023/06/12 08:47:02;;;;;;;9.80;7.50;;;;;;;26.03;39.85;101392.19;5088132;28;19916;-62
2023/06/12 08:49:29;;;;;;;11.30;7.22;;;;;;;26.01;39.14;101372.44;5070457;28;20021;-62
2023/06/12 08:51:54;;;;;;;11.93;6.65;;;;;;;26.18;39.49;101381.31;5090936;28;20023;-62
2023/06/12 08:54:20;;;;;;;11.30;6.75;;;;;;;26.30;38.21;101373.53;5090153;28;20065;-62
2023/06/12 08:56:46;;;;;;;12.90;6.97;;;;;;;26.40;39.54;101379.53;5092644;28;20479;-62
2023/06/12 08:59:13;;;;;;;8.25;6.97;;;;;;;26.50;38.70;101382.00;5073051;28;20028;-62
2023/06/12 09:01:39;;;;;;;13.90;7.13;;;;;;;26.54;37.32;101374.31;5087030;28;20031;-62
2023/06/12 09:04:10;;;;;;;13.73;6.88;;;;;;;26.52;38.97;101363.56;5086618;28;20028;-62
2023/06/12 09:06:37;;;;;;;10.18;6.82;;;;;;;26.58;37.39;101364.69;5083703;28;20042;-62
2023/06/12 09:09:03;;;;;;;10.40;6.45;;;;;;;26.59;38.75;101371.84;5086512;28;20031;-62
2023/06/12 09:11:29;;;;;;;12.75;7.35;;;;;;;26.80;38.03;101362.91;5076050;28;20028;-63
2023/06/12 09:14:01;;;;;;;10.77;6.57;;;;;;;26.79;37.32;101364.75;5073395;28;20028;-62
2023/06/12 09:16:27;;;;;;;8.98;7.10;;;;;;;26.87;37.95;101355.63;5071495;28;20029;-62
2023/06/12 09:18:54;;;;;;;8.73;6.95;;;;;;;26.75;36.54;101343.50;5089734;28;20036;-62
2023/06/12 09:21:24;;;;;;;11.00;6.78;;;;;;;26.92;36.25;101358.63;5092060;28;20016;-62
2023/06/12 09:23:51;;;;;;;8.25;6.30;;;;;;;27.01;37.49;101351.16;5093290;28;20024;-63
2023/06/12 09:26:21;;;;;;;10.23;6.20;;;;;;;26.98;36.36;101359.75;5084360;28;20688;-62
2023/06/12 09:28:52;;;;;;;7.68;5.85;;;;;;;27.02;36.57;101350.13;5092855;28;20043;-62
2023/06/12 09:31:18;;;;;;;9.82;5.93;;;;;;;27.06;35.33;101355.00;5091521;28;20024;-63
2023/06/12 09:33:44;;;;;;;11.55;6.78;;;;;;;27.03;35.59;101360.88;5091309;28;20180;-63
2023/06/12 09:36:12;;;;;;;12.63;6.80;;;;;;;27.19;36.54;101362.53;5091028;28;20020;-63
2023/06/12 09:38:38;;;;;;;11.07;6.28;;;;;;;27.29;36.09;101356.75;5092219;28;20027;-62
2023/06/12 09:41:06;;;;;;;7.18;6.47;;;;;;;27.34;35.20;101360.59;5112525;28;20031;-63
2023/06/12 09:43:32;;;;;;;9.60;6.88;;;;;;;27.56;36.16;101360.56;5109146;28;20043;-63
2023/06/12 09:46:00;;;;;;;9.30;6.53;;;;;;;27.49;35.91;101362.41;5084481;28;20080;-62
2023/06/12 09:48:36;;;;;;;6.90;6.22;;;;;;;27.57;35.61;101368.59;5094743;28;20017;-64
2023/06/12 09:51:07;;;;;;;12.48;5.68;;;;;;;27.56;34.21;101363.28;5088132;28;20156;-63
2023/06/12 09:53:38;;;;;;;9.50;6.32;;;;;;;27.54;34.06;101351.75;5094305;28;20015;-63
2023/06/12 09:56:07;;;;;;;10.57;6.70;;;;;;;27.62;34.80;101365.28;5089152;28;20486;-62
2023/06/12 09:58:38;;;;;;;7.40;6.05;;;;;;;27.55;34.51;101359.72;5112071;28;20007;-62
2023/06/12 10:01:08;;;;;;;10.40;6.53;;;;;;;27.60;33.73;101361.88;5093448;28;20063;-62
2023/06/12 10:03:40;;;;;;;7.88;6.00;;;;;;;27.72;34.37;101356.72;5110955;28;20034;-62
2023/06/12 10:06:08;;;;;;;9.77;6.25;;;;;;;27.68;35.11;101364.50;5088072;28;20028;-62
2023/06/12 10:08:34;;;;;;;10.02;6.00;;;;;;;27.64;34.85;101357.69;5103249;28;20020;-63
2023/06/12 10:11:00;;;;;;;8.35;6.38;;;;;;;27.68;35.09;101350.81;5078932;28;20471;-62
2023/06/12 10:13:26;;;;;;;11.25;6.15;;;;;;;27.78;35.04;101354.06;5109109;28;20049;-63
2023/06/12 10:15:52;;;;;;;7.78;6.22;;;;;;;27.85;34.28;101351.38;5092551;28;20024;-63
2023/06/12 10:18:19;;;;;;;8.05;6.00;;;;;;;27.99;33.79;101344.97;5092179;28;20413;-63
2023/06/12 10:20:46;;;;;;;7.93;5.80;;;;;;;28.12;34.08;101348.84;5091790;28;20032;-63
2023/06/12 10:23:12;;;;;;;7.78;6.70;;;;;;;28.05;33.40;101344.16;5092296;28;20024;-63
2023/06/12 10:25:38;;;;;;;7.53;6.28;;;;;;;28.10;33.84;101345.47;5092554;28;20030;-63
2023/06/12 10:28:06;;;;;;;7.18;6.15;;;;;;;28.20;33.50;101344.06;5112463;28;20051;-62
2023/06/12 10:30:31;;;;;;;7.47;6.47;;;;;;;28.16;34.07;101347.41;5093508;28;20028;-62
2023/06/12 10:33:13;;;;;;;7.88;6.18;;;;;;;28.10;34.43;101348.22;5112380;28;20273;-62
2023/06/12 10:35:39;;;;;;;11.27;6.45;;;;;;;28.21;33.09;101343.03;5112298;28;20023;-63
2023/06/12 10:38:04;;;;;;;10.75;6.38;;;;;;;28.28;34.61;101341.16;5093734;28;20375;-62
2023/06/12 10:40:31;;;;;;;11.93;6.65;;;;;;;28.24;34.67;101326.22;5112075;28;20051;-62
2023/06/12 10:43:04;;;;;;;8.02;6.15;;;;;;;28.37;34.01;101330.91;5112189;28;20019;-62
2023/06/12 10:45:32;;;;;;;7.25;6.50;;;;;;;28.38;34.67;101329.84;5111628;28;20032;-62
2023/06/12 10:48:04;;;;;;;11.57;6.43;;;;;;;28.64;34.31;101331.06;5094225;28;20051;-62
2023/06/12 10:50:42;;;;;;;8.32;5.93;;;;;;;28.70;34.17;101339.28;5112071;28;20072;-62
2023/06/12 10:53:15;;;;;;;8.13;6.10;;;;;;;28.50;32.35;101317.34;5112288;28;20057;-62
2023/06/12 10:55:44;;;;;;;10.43;6.07;;;;;;;28.59;33.08;101323.47;5112073;28;20024;-62
2023/06/12 10:58:15;;;;;;;10.07;6.80;;;;;;;28.67;34.07;101316.97;5111988;28;20020;-62
2023/06/12 11:00:46;;;;;;;9.00;6.15;;;;;;;28.73;34.12;101318.88;5111465;28;20023;-62
2023/06/12 11:03:21;;;;;;;7.10;5.90;;;;;;;28.75;33.19;101325.00;5112123;28;20023;-62
2023/06/12 11:05:49;;;;;;;8.63;5.82;;;;;;;28.97;33.26;101322.94;5111434;28;20143;-62
2023/06/12 11:08:15;;;;;;;9.93;6.22;;;;;;;28.92;32.76;101318.09;5111689;28;20487;-63
2023/06/12 11:10:40;;;;;;;10.93;6.82;;;;;;;28.95;32.98;101316.84;5110431;28;20359;-63
2023/06/12 11:13:06;;;;;;;8.05;6.32;;;;;;;29.04;32.45;101312.91;5116054;28;20026;-63
2023/06/12 11:15:39;;;;;;;9.88;6.15;;;;;;;29.13;33.25;101322.63;5115615;28;20031;-62
2023/06/12 11:18:05;;;;;;;7.68;6.88;;;;;;;29.02;32.80;101301.31;5116267;28;20028;-62
2023/06/12 11:20:33;;;;;;;12.50;6.82;;;;;;;29.03;32.50;101308.44;5116082;28;20466;-62